YMX16 RCTP-VMMC
Flight info
| Callsign | YMX16 |
|---|---|
| Flight time | 1h 14m |
| Altitude | 36000 |
| Route | CHALI T3 CANDY T5 MOLIT T3 MKG A1 ELATO J101 SMT |
| Aircraft | C750/M-SBDE3FGHRWXY/S |
Departure
| Time | 2026-04-21 23:45 |
|---|---|
| Airport | Taiwan Taoyuan International Airport (RCTP) |
Arrival
| Time | 2026-04-22 00:59 |
|---|---|
| Airport | Macau International Airport (VMMC) |
| Time | Latitude | Longitude | Altitude | Speed | Heading |
|---|---|---|---|---|---|
| 2026-04-21 23:22 | 25.09174 | 121.24531 | 115 ft | 0 kts | 140° |
| 2026-04-21 23:37 | 25.09173 | 121.24531 | 115 ft | 0 kts | 140° |
| 2026-04-21 23:37 | 25.09174 | 121.24531 | 115 ft | 1 kts | 140° |
| 2026-04-21 23:38 | 25.09185 | 121.24520 | 115 ft | 2 kts | 140° |
| 2026-04-21 23:38 | 25.09197 | 121.24509 | 115 ft | 2 kts | 140° |
| 2026-04-21 23:38 | 25.09208 | 121.24500 | 115 ft | 2 kts | 140° |
| 2026-04-21 23:38 | 25.09220 | 121.24489 | 115 ft | 2 kts | 140° |
| 2026-04-21 23:39 | 25.09231 | 121.24478 | 115 ft | 2 kts | 140° |
| 2026-04-21 23:39 | 25.09243 | 121.24468 | 115 ft | 2 kts | 140° |
| 2026-04-21 23:39 | 25.09250 | 121.24461 | 115 ft | 2 kts | 130° |
| 2026-04-21 23:39 | 25.09257 | 121.24446 | 115 ft | 2 kts | 103° |
| 2026-04-21 23:40 | 25.09257 | 121.24430 | 115 ft | 2 kts | 77° |
| 2026-04-21 23:40 | 25.09251 | 121.24415 | 115 ft | 1 kts | 52° |
| 2026-04-21 23:40 | 25.09248 | 121.24412 | 115 ft | 0 kts | 49° |
| 2026-04-21 23:42 | 25.09253 | 121.24418 | 115 ft | 3 kts | 49° |
| 2026-04-21 23:42 | 25.09287 | 121.24447 | 115 ft | 9 kts | 13° |
| 2026-04-21 23:42 | 25.09345 | 121.24423 | 115 ft | 8 kts | 320° |
| 2026-04-21 23:43 | 25.09387 | 121.24383 | 115 ft | 7 kts | 318° |
| 2026-04-21 23:43 | 25.09422 | 121.24338 | 115 ft | 7 kts | 286° |
| 2026-04-21 23:43 | 25.09413 | 121.24297 | 115 ft | 0 kts | 231° |
| 2026-04-21 23:44 | 25.09396 | 121.24276 | 115 ft | 17 kts | 229° |
| 2026-04-21 23:44 | 25.09128 | 121.23939 | 115 ft | 111 kts | 229° |
| 2026-04-21 23:44 | 25.08452 | 121.23071 | 401 ft | 176 kts | 229° |
| 2026-04-21 23:45 | 25.07573 | 121.21951 | 1311 ft | 215 kts | 229° |
| 2026-04-21 23:45 | 25.05611 | 121.19455 | 4231 ft | 222 kts | 229° |
| 2026-04-21 23:45 | 25.04635 | 121.18208 | 5539 ft | 225 kts | 229° |
| 2026-04-21 23:46 | 25.03633 | 121.16905 | 6768 ft | 230 kts | 233° |
| 2026-04-21 23:46 | 25.03111 | 121.15241 | 7740 ft | 245 kts | 270° |
| 2026-04-21 23:46 | 25.03622 | 121.13441 | 8683 ft | 262 kts | 297° |
| 2026-04-21 23:46 | 25.04503 | 121.11645 | 9609 ft | 277 kts | 296° |
| 2026-04-21 23:47 | 25.05450 | 121.09744 | 10479 ft | 294 kts | 297° |
| 2026-04-21 23:47 | 25.06281 | 121.07619 | 11269 ft | 311 kts | 279° |
| 2026-04-21 23:47 | 25.06095 | 121.05238 | 11991 ft | 327 kts | 251° |
| 2026-04-21 23:47 | 25.05265 | 121.02824 | 12695 ft | 345 kts | 245° |
| 2026-04-21 23:48 | 25.04009 | 121.00532 | 13372 ft | 361 kts | 236° |
| 2026-04-21 23:48 | 25.02610 | 120.98201 | 14286 ft | 369 kts | 235° |
| 2026-04-21 23:48 | 25.01145 | 120.95852 | 15283 ft | 373 kts | 236° |
| 2026-04-21 23:48 | 24.99675 | 120.93490 | 16241 ft | 378 kts | 235° |
| 2026-04-21 23:49 | 24.98200 | 120.91119 | 17136 ft | 382 kts | 235° |
| 2026-04-21 23:49 | 24.96673 | 120.88672 | 18008 ft | 387 kts | 235° |
| 2026-04-21 23:49 | 24.95151 | 120.86229 | 18838 ft | 392 kts | 235° |
| 2026-04-21 23:49 | 24.93601 | 120.83745 | 19644 ft | 397 kts | 235° |
| 2026-04-21 23:50 | 24.92033 | 120.81233 | 20424 ft | 401 kts | 235° |
| 2026-04-21 23:50 | 24.90443 | 120.78687 | 21180 ft | 406 kts | 235° |
| 2026-04-21 23:50 | 24.88853 | 120.76142 | 21904 ft | 410 kts | 236° |
| 2026-04-21 23:50 | 24.87211 | 120.73519 | 22619 ft | 414 kts | 235° |
| 2026-04-21 23:51 | 24.85576 | 120.70914 | 23301 ft | 419 kts | 235° |
| 2026-04-21 23:51 | 24.83920 | 120.68270 | 23964 ft | 423 kts | 235° |
| 2026-04-21 23:51 | 24.82245 | 120.65595 | 24610 ft | 427 kts | 236° |
| 2026-04-21 23:51 | 24.80568 | 120.62920 | 25205 ft | 431 kts | 236° |
| 2026-04-21 23:52 | 24.78865 | 120.60204 | 25787 ft | 434 kts | 236° |
| 2026-04-21 23:52 | 24.77140 | 120.57452 | 26353 ft | 438 kts | 236° |
| 2026-04-21 23:52 | 24.75407 | 120.54692 | 26897 ft | 441 kts | 236° |
| 2026-04-21 23:52 | 24.73672 | 120.51929 | 27420 ft | 445 kts | 236° |
| 2026-04-21 23:53 | 24.72076 | 120.48998 | 27872 ft | 449 kts | 247° |
| 2026-04-21 23:53 | 24.71165 | 120.45727 | 28397 ft | 451 kts | 251° |
| 2026-04-21 23:53 | 24.69906 | 120.42545 | 28879 ft | 454 kts | 246° |
| 2026-04-21 23:53 | 24.68508 | 120.39447 | 29310 ft | 458 kts | 239° |
| 2026-04-21 23:54 | 24.66812 | 120.36483 | 29908 ft | 457 kts | 238° |
| 2026-04-21 23:54 | 24.65153 | 120.33531 | 30300 ft | 461 kts | 238° |
| 2026-04-21 23:54 | 24.63446 | 120.30530 | 30619 ft | 467 kts | 238° |
| 2026-04-21 23:54 | 24.61728 | 120.27488 | 31093 ft | 468 kts | 238° |
| 2026-04-21 23:55 | 24.60025 | 120.24476 | 31671 ft | 467 kts | 238° |
| 2026-04-21 23:55 | 24.58308 | 120.21441 | 32282 ft | 465 kts | 238° |
| 2026-04-21 23:55 | 24.56615 | 120.18448 | 32869 ft | 463 kts | 238° |
| 2026-04-21 23:55 | 24.54926 | 120.15466 | 33432 ft | 461 kts | 238° |
| 2026-04-21 23:56 | 24.53239 | 120.12487 | 33979 ft | 460 kts | 238° |
| 2026-04-21 23:56 | 24.51555 | 120.09517 | 34515 ft | 459 kts | 238° |
| 2026-04-21 23:56 | 24.49880 | 120.06564 | 35039 ft | 457 kts | 238° |
| 2026-04-21 23:56 | 24.48189 | 120.03586 | 35559 ft | 456 kts | 238° |
| 2026-04-21 23:57 | 24.46531 | 120.00667 | 35853 ft | 460 kts | 238° |
| 2026-04-21 23:57 | 24.43073 | 119.94591 | 35887 ft | 478 kts | 238° |
| 2026-04-21 23:58 | 24.39502 | 119.88311 | 35888 ft | 496 kts | 238° |
| 2026-04-21 23:58 | 24.35787 | 119.81790 | 35884 ft | 511 kts | 238° |
| 2026-04-21 23:59 | 24.32018 | 119.75187 | 35882 ft | 516 kts | 238° |
| 2026-04-21 23:59 | 24.28182 | 119.68475 | 35883 ft | 518 kts | 238° |
| 2026-04-22 00:00 | 24.24384 | 119.61837 | 35883 ft | 518 kts | 238° |
| 2026-04-22 00:00 | 24.20561 | 119.55166 | 35883 ft | 518 kts | 238° |
| 2026-04-22 00:01 | 24.16718 | 119.48469 | 35882 ft | 518 kts | 238° |
| 2026-04-22 00:01 | 24.12884 | 119.41798 | 35882 ft | 518 kts | 238° |
| 2026-04-22 00:02 | 24.09073 | 119.35175 | 35882 ft | 518 kts | 238° |
| 2026-04-22 00:02 | 24.05225 | 119.28497 | 35883 ft | 518 kts | 237° |
| 2026-04-22 00:03 | 24.01383 | 119.21837 | 35883 ft | 518 kts | 237° |
| 2026-04-22 00:03 | 23.97550 | 119.15202 | 35883 ft | 518 kts | 237° |
| 2026-04-22 00:04 | 23.93706 | 119.08557 | 35883 ft | 518 kts | 237° |
| 2026-04-22 00:04 | 23.89855 | 119.01909 | 35883 ft | 518 kts | 237° |
| 2026-04-22 00:05 | 23.86005 | 118.95272 | 35883 ft | 518 kts | 237° |
| 2026-04-22 00:05 | 23.82155 | 118.88643 | 35885 ft | 517 kts | 237° |
| 2026-04-22 00:06 | 23.78314 | 118.82039 | 35883 ft | 515 kts | 237° |
| 2026-04-22 00:06 | 23.74497 | 118.75485 | 35883 ft | 515 kts | 237° |
| 2026-04-22 00:07 | 23.70662 | 118.68908 | 35883 ft | 515 kts | 237° |
| 2026-04-22 00:07 | 23.66820 | 118.62328 | 35883 ft | 515 kts | 237° |
| 2026-04-22 00:08 | 23.62966 | 118.55737 | 35883 ft | 515 kts | 237° |
| 2026-04-22 00:08 | 23.59119 | 118.49165 | 35883 ft | 515 kts | 237° |
| 2026-04-22 00:09 | 23.55277 | 118.42612 | 35883 ft | 515 kts | 237° |
| 2026-04-22 00:09 | 23.51424 | 118.36047 | 35882 ft | 515 kts | 237° |
| 2026-04-22 00:10 | 23.47593 | 118.29530 | 35883 ft | 515 kts | 237° |
| 2026-04-22 00:10 | 23.43739 | 118.22979 | 35884 ft | 515 kts | 237° |
| 2026-04-22 00:11 | 23.39860 | 118.16396 | 35883 ft | 515 kts | 237° |
| 2026-04-22 00:11 | 23.36012 | 118.09874 | 35883 ft | 515 kts | 237° |
| 2026-04-22 00:12 | 23.32157 | 118.03349 | 35883 ft | 515 kts | 237° |
| 2026-04-22 00:12 | 23.28287 | 117.96806 | 35883 ft | 515 kts | 237° |
| 2026-04-22 00:13 | 23.24427 | 117.90288 | 35883 ft | 515 kts | 237° |
| 2026-04-22 00:13 | 23.20555 | 117.83760 | 35883 ft | 515 kts | 237° |
| 2026-04-22 00:14 | 23.16668 | 117.77213 | 35883 ft | 515 kts | 237° |
| 2026-04-22 00:14 | 23.12786 | 117.70684 | 35883 ft | 515 kts | 237° |
| 2026-04-22 00:15 | 23.08902 | 117.64159 | 35883 ft | 515 kts | 237° |
| 2026-04-22 00:15 | 23.05032 | 117.57667 | 35882 ft | 515 kts | 237° |
| 2026-04-22 00:16 | 23.01130 | 117.51128 | 35882 ft | 515 kts | 237° |
| 2026-04-22 00:16 | 22.97264 | 117.44659 | 35882 ft | 515 kts | 237° |
| 2026-04-22 00:17 | 22.93351 | 117.38120 | 35882 ft | 515 kts | 237° |
| 2026-04-22 00:17 | 22.89471 | 117.31642 | 35883 ft | 515 kts | 237° |
| 2026-04-22 00:18 | 22.85574 | 117.25146 | 35884 ft | 515 kts | 237° |
| 2026-04-22 00:18 | 22.81684 | 117.18668 | 35884 ft | 515 kts | 237° |
| 2026-04-22 00:19 | 22.77773 | 117.12164 | 35884 ft | 515 kts | 237° |
| 2026-04-22 00:19 | 22.73856 | 117.05657 | 35883 ft | 515 kts | 237° |
| 2026-04-22 00:20 | 22.69965 | 116.99204 | 35883 ft | 515 kts | 237° |
| 2026-04-22 00:20 | 22.66042 | 116.92704 | 35883 ft | 515 kts | 237° |
| 2026-04-22 00:21 | 22.62125 | 116.86221 | 35883 ft | 515 kts | 237° |
| 2026-04-22 00:21 | 22.58222 | 116.79771 | 35880 ft | 515 kts | 237° |
| 2026-04-22 00:22 | 22.54290 | 116.73281 | 35883 ft | 515 kts | 237° |
| 2026-04-22 00:22 | 22.50823 | 116.66569 | 35831 ft | 515 kts | 254° |
| 2026-04-22 00:22 | 22.50353 | 116.62785 | 35876 ft | 514 kts | 268° |
| 2026-04-22 00:23 | 22.50220 | 116.58941 | 35885 ft | 515 kts | 266° |
| 2026-04-22 00:23 | 22.49808 | 116.51202 | 35884 ft | 516 kts | 266° |
| 2026-04-22 00:24 | 22.49379 | 116.43469 | 35882 ft | 516 kts | 266° |
| 2026-04-22 00:24 | 22.48947 | 116.35787 | 35883 ft | 516 kts | 266° |
| 2026-04-22 00:25 | 22.48510 | 116.28084 | 35884 ft | 516 kts | 266° |
| 2026-04-22 00:25 | 22.48066 | 116.20325 | 35883 ft | 516 kts | 266° |
| 2026-04-22 00:26 | 22.47623 | 116.12643 | 35883 ft | 516 kts | 266° |
| 2026-04-22 00:26 | 22.47174 | 116.04920 | 35883 ft | 516 kts | 266° |
| 2026-04-22 00:27 | 22.46822 | 115.98919 | 35883 ft | 516 kts | 266° |
| 2026-04-22 00:27 | 22.46367 | 115.91213 | 35883 ft | 516 kts | 266° |
| 2026-04-22 00:28 | 22.45906 | 115.83473 | 35883 ft | 516 kts | 266° |
| 2026-04-22 00:28 | 22.45444 | 115.75777 | 35883 ft | 516 kts | 266° |
| 2026-04-22 00:29 | 22.44978 | 115.68089 | 35883 ft | 516 kts | 266° |
| 2026-04-22 00:29 | 22.44507 | 115.60368 | 35883 ft | 516 kts | 266° |
| 2026-04-22 00:30 | 22.44031 | 115.52621 | 35883 ft | 516 kts | 266° |
| 2026-04-22 00:30 | 22.43555 | 115.44943 | 35883 ft | 516 kts | 266° |
| 2026-04-22 00:31 | 22.43074 | 115.37240 | 35882 ft | 516 kts | 266° |
| 2026-04-22 00:31 | 22.42588 | 115.29511 | 35883 ft | 516 kts | 265° |
| 2026-04-22 00:32 | 22.42101 | 115.21826 | 35883 ft | 516 kts | 265° |
| 2026-04-22 00:32 | 22.41605 | 115.14075 | 35897 ft | 512 kts | 265° |
| 2026-04-22 00:33 | 22.41121 | 115.06557 | 35880 ft | 503 kts | 265° |
| 2026-04-22 00:33 | 22.40635 | 114.99056 | 35881 ft | 496 kts | 265° |
| 2026-04-22 00:34 | 22.40156 | 114.91727 | 35881 ft | 487 kts | 265° |
| 2026-04-22 00:34 | 22.39683 | 114.84528 | 35879 ft | 473 kts | 265° |
| 2026-04-22 00:35 | 22.39222 | 114.77567 | 35879 ft | 459 kts | 265° |
| 2026-04-22 00:35 | 22.38997 | 114.74178 | 35693 ft | 453 kts | 265° |
| 2026-04-22 00:35 | 22.38773 | 114.70831 | 35046 ft | 446 kts | 265° |
| 2026-04-22 00:35 | 22.38554 | 114.67561 | 34406 ft | 434 kts | 265° |
| 2026-04-22 00:36 | 22.38335 | 114.64313 | 33814 ft | 429 kts | 265° |
| 2026-04-22 00:36 | 22.38121 | 114.61130 | 33253 ft | 426 kts | 265° |
| 2026-04-22 00:36 | 22.37906 | 114.57948 | 32684 ft | 427 kts | 265° |
| 2026-04-22 00:36 | 22.37690 | 114.54771 | 32100 ft | 430 kts | 265° |
| 2026-04-22 00:37 | 22.37472 | 114.51536 | 31497 ft | 432 kts | 265° |
| 2026-04-22 00:37 | 22.37252 | 114.48337 | 30910 ft | 433 kts | 265° |
| 2026-04-22 00:37 | 22.37030 | 114.45078 | 30325 ft | 434 kts | 265° |
| 2026-04-22 00:37 | 22.36808 | 114.41843 | 29731 ft | 431 kts | 265° |
| 2026-04-22 00:38 | 22.36590 | 114.38665 | 29107 ft | 428 kts | 265° |
| 2026-04-22 00:38 | 22.36370 | 114.35483 | 28395 ft | 426 kts | 265° |
| 2026-04-22 00:38 | 22.36149 | 114.32291 | 27649 ft | 422 kts | 265° |
| 2026-04-22 00:38 | 22.35934 | 114.29194 | 26969 ft | 415 kts | 265° |
| 2026-04-22 00:39 | 22.35720 | 114.26109 | 26372 ft | 406 kts | 265° |
| 2026-04-22 00:39 | 22.35512 | 114.23124 | 25828 ft | 398 kts | 265° |
| 2026-04-22 00:39 | 22.35305 | 114.20174 | 25286 ft | 390 kts | 265° |
| 2026-04-22 00:39 | 22.35102 | 114.17281 | 24715 ft | 384 kts | 265° |
| 2026-04-22 00:40 | 22.34902 | 114.14432 | 24068 ft | 380 kts | 265° |
| 2026-04-22 00:40 | 22.34703 | 114.11616 | 23396 ft | 377 kts | 265° |
| 2026-04-22 00:40 | 22.34507 | 114.08833 | 22736 ft | 374 kts | 265° |
| 2026-04-22 00:40 | 22.34312 | 114.06063 | 22105 ft | 370 kts | 265° |
| 2026-04-22 00:41 | 22.34121 | 114.03321 | 21494 ft | 367 kts | 265° |
| 2026-04-22 00:41 | 22.33926 | 114.00583 | 20885 ft | 363 kts | 265° |
| 2026-04-22 00:41 | 22.33679 | 113.97889 | 20277 ft | 359 kts | 259° |
| 2026-04-22 00:41 | 22.32921 | 113.95380 | 19675 ft | 356 kts | 240° |
| 2026-04-22 00:42 | 22.31334 | 113.93350 | 19095 ft | 352 kts | 223° |
| 2026-04-22 00:42 | 22.29487 | 113.91645 | 18499 ft | 350 kts | 220° |
| 2026-04-22 00:42 | 22.27598 | 113.89992 | 17900 ft | 348 kts | 219° |
| 2026-04-22 00:42 | 22.25734 | 113.88378 | 17316 ft | 345 kts | 219° |
| 2026-04-22 00:43 | 22.23865 | 113.86762 | 16735 ft | 343 kts | 219° |
| 2026-04-22 00:43 | 22.21997 | 113.85148 | 16157 ft | 340 kts | 219° |
| 2026-04-22 00:43 | 22.20169 | 113.83570 | 15590 ft | 338 kts | 219° |
| 2026-04-22 00:43 | 22.18345 | 113.81995 | 15014 ft | 336 kts | 219° |
| 2026-04-22 00:44 | 22.16526 | 113.80424 | 14429 ft | 335 kts | 219° |
| 2026-04-22 00:44 | 22.14698 | 113.78848 | 13827 ft | 334 kts | 219° |
| 2026-04-22 00:44 | 22.12902 | 113.77298 | 13219 ft | 332 kts | 219° |
| 2026-04-22 00:44 | 22.11118 | 113.75760 | 12599 ft | 329 kts | 219° |
| 2026-04-22 00:45 | 22.09331 | 113.74219 | 11958 ft | 327 kts | 219° |
| 2026-04-22 00:45 | 22.07564 | 113.72697 | 11308 ft | 324 kts | 219° |
| 2026-04-22 00:45 | 22.05841 | 113.71213 | 11035 ft | 311 kts | 219° |
| 2026-04-22 00:45 | 22.04166 | 113.69772 | 11005 ft | 305 kts | 219° |
| 2026-04-22 00:46 | 22.02730 | 113.68133 | 10969 ft | 297 kts | 241° |
| 2026-04-22 00:46 | 22.02208 | 113.66059 | 10953 ft | 288 kts | 265° |
| 2026-04-22 00:46 | 22.02070 | 113.63921 | 10822 ft | 285 kts | 264° |
| 2026-04-22 00:46 | 22.02052 | 113.61788 | 10565 ft | 287 kts | 281° |
| 2026-04-22 00:47 | 22.02959 | 113.59911 | 10247 ft | 287 kts | 312° |
| 2026-04-22 00:47 | 22.04659 | 113.58807 | 9850 ft | 288 kts | 343° |
| 2026-04-22 00:47 | 22.06608 | 113.58328 | 9440 ft | 286 kts | 336° |
| 2026-04-22 00:47 | 22.08274 | 113.57204 | 9000 ft | 282 kts | 324° |
| 2026-04-22 00:48 | 22.09906 | 113.56040 | 8475 ft | 281 kts | 324° |
| 2026-04-22 00:48 | 22.11525 | 113.54850 | 7953 ft | 280 kts | 324° |
| 2026-04-22 00:48 | 22.13077 | 113.53657 | 7391 ft | 277 kts | 323° |
| 2026-04-22 00:48 | 22.14633 | 113.52461 | 6952 ft | 268 kts | 323° |
| 2026-04-22 00:49 | 22.16121 | 113.51317 | 6691 ft | 260 kts | 323° |
| 2026-04-22 00:49 | 22.17599 | 113.50178 | 6485 ft | 262 kts | 323° |
| 2026-04-22 00:49 | 22.19109 | 113.49015 | 6304 ft | 264 kts | 323° |
| 2026-04-22 00:49 | 22.20609 | 113.47874 | 6134 ft | 266 kts | 326° |
| 2026-04-22 00:50 | 22.22384 | 113.47295 | 5948 ft | 270 kts | 0° |
| 2026-04-22 00:50 | 22.24139 | 113.47848 | 5932 ft | 266 kts | 32° |
| 2026-04-22 00:50 | 22.25617 | 113.49038 | 5939 ft | 262 kts | 34° |
| 2026-04-22 00:50 | 22.27152 | 113.50137 | 5934 ft | 264 kts | 33° |
| 2026-04-22 00:51 | 22.28687 | 113.51228 | 5928 ft | 264 kts | 32° |
| 2026-04-22 00:51 | 22.30239 | 113.52319 | 5923 ft | 265 kts | 32° |
| 2026-04-22 00:51 | 22.31785 | 113.53406 | 5920 ft | 264 kts | 32° |
| 2026-04-22 00:51 | 22.33307 | 113.54476 | 5909 ft | 255 kts | 32° |
| 2026-04-22 00:52 | 22.34762 | 113.55499 | 5903 ft | 245 kts | 32° |
| 2026-04-22 00:52 | 22.36139 | 113.56468 | 5917 ft | 231 kts | 32° |
| 2026-04-22 00:52 | 22.37496 | 113.57421 | 5697 ft | 229 kts | 32° |
| 2026-04-22 00:52 | 22.38676 | 113.58532 | 5412 ft | 226 kts | 59° |
| 2026-04-22 00:53 | 22.38988 | 113.60132 | 5147 ft | 221 kts | 100° |
| 2026-04-22 00:53 | 22.38272 | 113.61523 | 4867 ft | 211 kts | 142° |
| 2026-04-22 00:53 | 22.36936 | 113.62014 | 4577 ft | 202 kts | 182° |
| 2026-04-22 00:53 | 22.35548 | 113.62095 | 4338 ft | 198 kts | 172° |
| 2026-04-22 00:54 | 22.34206 | 113.62331 | 4091 ft | 193 kts | 172° |
| 2026-04-22 00:54 | 22.32943 | 113.62550 | 3948 ft | 177 kts | 172° |
| 2026-04-22 00:54 | 22.31733 | 113.62763 | 3594 ft | 177 kts | 172° |
| 2026-04-22 00:54 | 22.30520 | 113.62977 | 3214 ft | 176 kts | 172° |
| 2026-04-22 00:55 | 22.29307 | 113.63191 | 2837 ft | 175 kts | 172° |
| 2026-04-22 00:55 | 22.28116 | 113.63399 | 2528 ft | 169 kts | 173° |
| 2026-04-22 00:55 | 22.26218 | 113.62474 | 2120 ft | 146 kts | 220° |
| 2026-04-22 00:56 | 22.25431 | 113.61839 | 1938 ft | 139 kts | 216° |
| 2026-04-22 00:56 | 22.24674 | 113.61258 | 1743 ft | 126 kts | 216° |
| 2026-04-22 00:56 | 22.23953 | 113.60714 | 1620 ft | 125 kts | 216° |
| 2026-04-22 00:56 | 22.23234 | 113.60173 | 1502 ft | 129 kts | 216° |
| 2026-04-22 00:57 | 22.22494 | 113.59618 | 1417 ft | 128 kts | 216° |
| 2026-04-22 00:57 | 22.21766 | 113.59070 | 1228 ft | 127 kts | 216° |
| 2026-04-22 00:57 | 22.21039 | 113.58534 | 1029 ft | 126 kts | 215° |
| 2026-04-22 00:57 | 22.20294 | 113.58061 | 884 ft | 124 kts | 205° |
| 2026-04-22 00:58 | 22.19432 | 113.57765 | 681 ft | 135 kts | 190° |
| 2026-04-22 00:58 | 22.18501 | 113.57805 | 534 ft | 133 kts | 165° |
| 2026-04-22 00:58 | 22.17632 | 113.58157 | 322 ft | 129 kts | 163° |
| 2026-04-22 00:58 | 22.16795 | 113.58460 | 137 ft | 125 kts | 164° |
| 2026-04-22 00:59 | 22.15989 | 113.58755 | 21 ft | 117 kts | 163° |
| 2026-04-22 00:59 | 22.15270 | 113.59015 | 10 ft | 93 kts | 161° |
| 2026-04-22 00:59 | 22.14830 | 113.59176 | 10 ft | 33 kts | 161° |
| 2026-04-22 00:59 | 22.14804 | 113.59185 | 10 ft | 0 kts | 160° |
| 2026-04-22 01:00 | 22.14798 | 113.59188 | 10 ft | 2 kts | 160° |
| 2026-04-22 01:00 | 22.14784 | 113.59193 | 10 ft | 2 kts | 160° |
| 2026-04-22 01:00 | 22.14740 | 113.59210 | 10 ft | 10 kts | 161° |
| 2026-04-22 01:01 | 22.14682 | 113.59231 | 10 ft | 7 kts | 162° |
| 2026-04-22 01:01 | 22.14640 | 113.59239 | 10 ft | 6 kts | 188° |
| 2026-04-22 01:01 | 22.14591 | 113.59180 | 10 ft | 14 kts | 249° |
| 2026-04-22 01:01 | 22.14594 | 113.59092 | 10 ft | 11 kts | 308° |
| 2026-04-22 01:02 | 22.14678 | 113.59050 | 10 ft | 16 kts | 342° |
| 2026-04-22 01:02 | 22.14770 | 113.58965 | 9 ft | 18 kts | 303° |
| 2026-04-22 01:02 | 22.14846 | 113.58842 | 8 ft | 21 kts | 304° |
| 2026-04-22 01:02 | 22.14941 | 113.58689 | 7 ft | 27 kts | 303° |
| 2026-04-22 01:03 | 22.15058 | 113.58500 | 7 ft | 32 kts | 304° |
| 2026-04-22 01:03 | 22.15177 | 113.58308 | 7 ft | 28 kts | 304° |
| 2026-04-22 01:03 | 22.15279 | 113.58140 | 7 ft | 24 kts | 304° |
| 2026-04-22 01:03 | 22.15369 | 113.57999 | 7 ft | 20 kts | 305° |
| 2026-04-22 01:04 | 22.15441 | 113.57880 | 9 ft | 17 kts | 300° |
| 2026-04-22 01:04 | 22.15504 | 113.57777 | 11 ft | 15 kts | 303° |
| 2026-04-22 01:04 | 22.15557 | 113.57685 | 12 ft | 13 kts | 302° |
| 2026-04-22 01:04 | 22.15601 | 113.57611 | 15 ft | 9 kts | 303° |
| 2026-04-22 01:05 | 22.15607 | 113.57551 | 17 ft | 9 kts | 241° |
| 2026-04-22 01:05 | 22.15555 | 113.57463 | 18 ft | 17 kts | 243° |
| 2026-04-22 01:05 | 22.15500 | 113.57351 | 19 ft | 11 kts | 243° |
| 2026-04-22 01:05 | 22.15476 | 113.57304 | 19 ft | 3 kts | 243° |
| 2026-04-22 01:06 | 22.15460 | 113.57286 | 18 ft | 4 kts | 186° |
| 2026-04-22 01:06 | 22.15433 | 113.57295 | 18 ft | 6 kts | 173° |
| 2026-04-22 01:06 | 22.15410 | 113.57264 | 17 ft | 4 kts | 244° |
| 2026-04-22 01:06 | 22.15397 | 113.57242 | 17 ft | 2 kts | 214° |
| 2026-04-22 01:07 | 22.15383 | 113.57241 | 16 ft | 3 kts | 160° |
| 2026-04-22 01:07 | 22.15379 | 113.57243 | 16 ft | 0 kts | 156° |